createdAt,value
2018-11-12T00:00:04.357Z,7.05
2018-11-12T00:02:32.514Z,7.40
2018-11-12T00:05:00.671Z,7.85
2018-11-12T00:07:28.807Z,7.77
2018-11-12T00:09:56.946Z,7.10
2018-11-12T00:12:25.095Z,6.70
2018-11-12T00:14:53.203Z,7.67
2018-11-12T00:17:21.327Z,7.10
2018-11-12T00:19:49.483Z,6.60
2018-11-12T00:22:17.609Z,7.50
2018-11-12T00:24:45.762Z,7.30
2018-11-12T00:27:13.913Z,7.70
2018-11-12T00:29:42.050Z,6.90
2018-11-12T00:32:10.139Z,6.85
2018-11-12T00:34:38.591Z,6.72
2018-11-12T00:37:06.694Z,8.05
2018-11-12T00:39:34.801Z,7.90
2018-11-12T00:42:02.917Z,7.95
2018-11-12T00:44:31.072Z,7.78
2018-11-12T00:46:59.187Z,6.55
2018-11-12T00:50:30.772Z,6.90
2018-11-12T00:52:58.936Z,7.03
2018-11-12T00:55:27.094Z,7.85
2018-11-12T00:57:55.221Z,7.30
2018-11-12T01:00:23.348Z,7.03
2018-11-12T01:02:51.438Z,6.90
2018-11-12T01:05:20.093Z,7.70
2018-11-12T01:07:48.672Z,7.70
2018-11-12T01:10:17.782Z,7.33
2018-11-12T01:12:46.176Z,7.30
2018-11-12T01:15:15.566Z,7.87
2018-11-12T01:17:44.047Z,6.90
2018-11-12T01:20:13.471Z,8.93
2018-11-12T01:22:41.667Z,8.50
2018-11-12T01:25:11.067Z,7.45
2018-11-12T01:27:39.938Z,8.10
2018-11-12T01:30:10.060Z,7.70
2018-11-12T01:32:38.252Z,7.78
2018-11-12T01:35:07.270Z,9.70
2018-11-12T01:37:35.412Z,7.80
2018-11-12T01:40:03.572Z,7.78
2018-11-12T01:42:31.705Z,9.05
2018-11-12T01:44:59.845Z,8.53
2018-11-12T01:47:27.994Z,7.90
2018-11-12T01:49:56.113Z,7.87
2018-11-12T01:52:24.200Z,7.10
2018-11-12T01:54:52.345Z,7.37
2018-11-12T01:57:20.613Z,8.30
2018-11-12T01:59:48.712Z,7.17
2018-11-12T02:02:16.802Z,8.20
2018-11-12T02:04:45.008Z,8.40
2018-11-12T02:07:13.085Z,8.23
2018-11-12T02:09:41.213Z,9.80
2018-11-12T02:12:09.340Z,9.20
2018-11-12T02:14:37.587Z,8.70
2018-11-12T02:17:05.777Z,8.57
2018-11-12T02:19:33.925Z,9.27
2018-11-12T02:22:02.062Z,8.93
2018-11-12T02:24:30.234Z,8.63
2018-11-12T02:26:58.405Z,9.93
2018-11-12T02:29:26.587Z,8.23
2018-11-12T02:31:54.726Z,8.17
2018-11-12T02:34:22.860Z,8.67
2018-11-12T02:36:51.010Z,7.77
2018-11-12T02:39:19.089Z,8.20
2018-11-12T02:41:47.227Z,8.27
2018-11-12T02:44:15.356Z,7.95
2018-11-12T02:46:43.473Z,7.27
2018-11-12T02:49:11.609Z,7.97
2018-11-12T02:51:39.777Z,6.70
2018-11-12T02:54:07.993Z,8.40
2018-11-12T02:56:36.166Z,8.07
2018-11-12T02:59:04.334Z,8.10
2018-11-12T03:01:32.468Z,7.87
2018-11-12T03:04:00.597Z,6.90
2018-11-12T03:06:28.754Z,7.60
2018-11-12T03:08:56.886Z,7.10
2018-11-12T03:11:25.001Z,6.17
2018-11-12T03:13:53.157Z,6.80
2018-11-12T03:16:21.266Z,7.17
2018-11-12T03:18:49.421Z,6.43
2018-11-12T03:21:17.535Z,6.80
2018-11-12T03:23:46.302Z,7.22
2018-11-12T03:26:14.453Z,6.30
2018-11-12T03:28:43.384Z,6.25
2018-11-12T03:31:11.542Z,6.58
2018-11-12T03:33:39.690Z,5.70
2018-11-12T03:36:07.833Z,5.97
2018-11-12T03:38:35.981Z,5.65
2018-11-12T03:41:04.391Z,5.15
2018-11-12T03:43:32.501Z,5.75
2018-11-12T03:46:00.669Z,5.13
2018-11-12T03:48:28.798Z,5.53
2018-11-12T03:50:56.929Z,5.47
2018-11-12T03:53:25.005Z,5.17
2018-11-12T03:55:53.095Z,6.00
2018-11-12T03:58:21.189Z,6.13
2018-11-12T04:00:49.318Z,5.60
2018-11-12T04:03:17.442Z,5.97
2018-11-12T04:05:45.584Z,6.00
2018-11-12T04:08:13.708Z,6.60
2018-11-12T04:10:41.828Z,5.93
2018-11-12T04:13:09.986Z,4.80
2018-11-12T04:15:38.108Z,4.70
2018-11-12T04:18:06.229Z,5.40
2018-11-12T04:20:34.362Z,4.97
2018-11-12T04:23:03.549Z,5.07
2018-11-12T04:25:32.489Z,5.20
2018-11-12T04:28:00.693Z,5.17
2018-11-12T04:30:28.781Z,6.07
2018-11-12T04:32:56.877Z,5.60
2018-11-12T04:35:24.987Z,5.40
2018-11-12T04:37:53.123Z,5.00
2018-11-12T04:40:21.252Z,5.63
2018-11-12T04:42:49.682Z,5.85
2018-11-12T04:45:18.915Z,5.67
2018-11-12T04:47:47.879Z,5.20
2018-11-12T04:50:18.893Z,6.10
2018-11-12T04:52:47.115Z,5.80
2018-11-12T04:55:16.563Z,6.00
2018-11-12T04:57:45.133Z,6.30
2018-11-12T05:00:19.564Z,6.17
2018-11-12T05:02:47.700Z,6.23
2018-11-12T05:05:17.120Z,6.60
2018-11-12T05:07:45.596Z,6.30
2018-11-12T05:10:14.997Z,7.62
2018-11-12T05:12:44.625Z,6.53
2018-11-12T05:15:14.572Z,7.53
2018-11-12T05:17:42.786Z,7.60
2018-11-12T05:20:13.472Z,8.08
2018-11-12T05:22:41.622Z,7.75
2018-11-12T05:25:09.931Z,7.40
2018-11-12T05:27:38.092Z,7.50
2018-11-12T05:30:11.105Z,7.70
2018-11-12T05:32:39.217Z,7.33
2018-11-12T05:35:07.369Z,6.90
2018-11-12T05:37:35.799Z,7.30
2018-11-12T05:40:04.646Z,7.97
2018-11-12T05:42:32.817Z,8.17
2018-11-12T05:45:01.021Z,8.57
2018-11-12T05:47:29.106Z,7.80
2018-11-12T05:49:57.244Z,9.70
2018-11-12T05:52:25.349Z,8.93
2018-11-12T05:54:53.530Z,8.93
2018-11-12T05:57:21.669Z,8.37
2018-11-12T05:59:49.845Z,7.77
2018-11-12T06:02:18.016Z,10.20
2018-11-12T06:04:46.248Z,9.90
2018-11-12T06:07:14.710Z,8.87
2018-11-12T06:09:42.875Z,8.67
2018-11-12T06:12:11.028Z,9.48
2018-11-12T06:14:39.248Z,8.40
2018-11-12T06:17:07.393Z,10.05
2018-11-12T06:19:35.517Z,8.33
2018-11-12T06:22:03.771Z,10.58
2018-11-12T06:24:31.932Z,8.80
2018-11-12T06:27:00.113Z,8.53
2018-11-12T06:29:28.386Z,8.20
2018-11-12T06:31:56.528Z,8.60
2018-11-12T06:34:24.653Z,7.63
2018-11-12T06:36:52.863Z,7.50
2018-11-12T06:39:20.980Z,7.70
2018-11-12T06:41:49.130Z,7.60
2018-11-12T06:44:17.244Z,7.30
2018-11-12T06:46:45.402Z,7.67
2018-11-12T06:49:14.138Z,7.37
2018-11-12T06:51:42.361Z,7.40
2018-11-12T06:54:10.497Z,7.47
2018-11-12T06:56:38.598Z,7.50
2018-11-12T06:59:06.714Z,6.10
2018-11-12T07:01:34.882Z,6.95
2018-11-12T07:04:03.038Z,7.40
2018-11-12T07:06:31.363Z,6.00
2018-11-12T07:08:59.785Z,6.33
2018-11-12T07:11:27.968Z,6.60
2018-11-12T07:13:56.993Z,6.83
2018-11-12T07:16:25.760Z,6.30
2018-11-12T07:18:55.309Z,5.37
2018-11-12T07:21:24.702Z,6.60
2018-11-12T07:23:52.982Z,5.85
2018-11-12T07:26:21.250Z,4.77
2018-11-12T07:28:49.357Z,5.20
2018-11-12T07:31:17.551Z,5.33
2018-11-12T07:33:45.786Z,4.90
2018-11-12T07:36:13.881Z,4.90
2018-11-12T07:38:42.046Z,4.13
2018-11-12T07:41:10.183Z,4.50
2018-11-12T07:43:38.301Z,4.47
2018-11-12T07:46:06.389Z,4.10
2018-11-12T07:48:34.602Z,4.70
2018-11-12T07:51:02.702Z,3.90
2018-11-12T07:53:30.833Z,3.93
2018-11-12T07:55:58.939Z,3.87
2018-11-12T07:58:27.178Z,4.80
2018-11-12T08:00:55.313Z,3.70
2018-11-12T08:03:23.625Z,4.23
2018-11-12T08:05:53.033Z,4.40
2018-11-12T08:08:21.530Z,4.67
2018-11-12T08:10:49.663Z,3.93
2018-11-12T08:13:17.778Z,3.57
2018-11-12T08:15:45.937Z,4.60
2018-11-12T08:18:14.055Z,3.50
2018-11-12T08:20:42.170Z,4.13
2018-11-12T08:23:10.297Z,3.90
2018-11-12T08:25:38.465Z,4.60
2018-11-12T08:28:06.595Z,4.60
2018-11-12T08:30:34.735Z,3.90
2018-11-12T08:33:02.956Z,3.67
2018-11-12T08:35:31.070Z,4.10
2018-11-12T08:37:59.503Z,3.40
2018-11-12T08:40:28.661Z,4.20
2018-11-12T08:42:56.725Z,4.37
2018-11-12T08:45:24.866Z,5.00
2018-11-12T08:47:54.152Z,3.70
2018-11-12T08:50:24.458Z,3.93
2018-11-12T08:52:53.337Z,4.37
2018-11-12T08:55:22.827Z,4.10
2018-11-12T08:57:54.045Z,4.20
2018-11-12T09:00:23.041Z,4.65
2018-11-12T09:02:51.272Z,3.90
2018-11-12T09:05:20.413Z,3.87
2018-11-12T09:07:50.021Z,3.70
2018-11-12T09:10:20.179Z,3.60
2018-11-12T09:12:48.309Z,4.67
2018-11-12T09:15:16.616Z,4.30
2018-11-12T09:17:45.709Z,4.23
2018-11-12T09:20:16.456Z,4.20
2018-11-12T09:22:44.667Z,4.25
2018-11-12T09:25:14.557Z,4.27
2018-11-12T09:27:42.677Z,4.20
2018-11-12T09:30:15.806Z,4.60
2018-11-12T09:32:44.302Z,5.07
2018-11-12T09:35:29.926Z,4.30
2018-11-12T09:37:58.738Z,3.73
2018-11-12T09:40:29.102Z,4.63
2018-11-12T09:42:57.275Z,4.60
2018-11-12T09:45:25.403Z,4.50
2018-11-12T09:47:53.641Z,4.90
2018-11-12T09:50:22.847Z,5.20
2018-11-12T09:52:52.124Z,5.37
2018-11-12T09:55:20.945Z,5.40
2018-11-12T09:57:50.551Z,6.07
2018-11-12T10:00:19.783Z,6.20
2018-11-12T10:02:49.222Z,6.37
2018-11-12T10:05:18.199Z,6.90
2018-11-12T10:07:47.566Z,6.20
2018-11-12T10:10:56.158Z,6.30
2018-11-12T10:13:27.082Z,6.03
2018-11-12T10:15:55.047Z,5.83
2018-11-12T10:18:21.144Z,6.20
2018-11-12T10:20:49.268Z,6.07
2018-11-12T10:23:17.785Z,6.27
2018-11-12T10:25:45.989Z,5.90
2018-11-12T10:28:14.272Z,6.30
2018-11-12T10:30:42.433Z,6.00
2018-11-12T10:33:10.533Z,4.90
2018-11-12T10:35:38.660Z,5.27
2018-11-12T10:38:07.394Z,5.20
2018-11-12T10:40:35.485Z,6.25
2018-11-12T10:43:03.590Z,5.90
2018-11-12T10:45:31.699Z,5.03
2018-11-12T10:47:59.892Z,5.65
2018-11-12T10:50:27.937Z,5.40
2018-11-12T10:52:56.067Z,6.00
2018-11-12T10:55:25.285Z,5.10
2018-11-12T10:57:53.610Z,4.95
2018-11-12T11:00:28.358Z,5.73
2018-11-12T11:03:03.250Z,6.07
2018-11-12T11:05:31.530Z,6.23
2018-11-12T11:07:59.691Z,5.73
2018-11-12T11:10:28.533Z,6.97
2018-11-12T11:12:57.900Z,6.37
2018-11-12T11:15:26.212Z,6.60
2018-11-12T11:17:54.301Z,9.10
2018-11-12T11:20:22.756Z,6.85
2018-11-12T11:22:50.881Z,6.22
2018-11-12T11:25:19.061Z,7.03
2018-11-12T11:27:47.210Z,7.25
2018-11-12T11:30:16.646Z,8.05
2018-11-12T11:32:45.023Z,9.00
2018-11-12T11:35:14.546Z,9.73
2018-11-12T11:37:42.675Z,10.43
2018-11-12T11:40:14.325Z,9.73
2018-11-12T11:42:42.433Z,10.90
2018-11-12T11:45:11.641Z,11.80
2018-11-12T11:47:40.532Z,11.67
2018-11-12T11:50:09.968Z,12.57
2018-11-12T11:52:38.078Z,12.97
2018-11-12T11:55:09.006Z,13.83
2018-11-12T11:57:37.266Z,12.90
2018-11-12T12:00:09.186Z,12.40
2018-11-12T12:02:37.325Z,12.60
2018-11-12T12:05:06.845Z,11.20
2018-11-12T12:07:35.018Z,11.03
2018-11-12T12:10:03.148Z,10.03
2018-11-12T12:12:31.325Z,9.67
2018-11-12T12:14:59.449Z,10.30
2018-11-12T12:17:27.906Z,9.93
2018-11-12T12:19:56.136Z,9.33
2018-11-12T12:22:24.210Z,10.70
2018-11-12T12:24:52.408Z,10.95
2018-11-12T12:27:20.556Z,9.17
2018-11-12T12:29:48.685Z,10.00
2018-11-12T12:32:16.811Z,11.07
2018-11-12T12:34:44.963Z,10.17
2018-11-12T12:37:13.333Z,10.07
2018-11-12T12:39:41.478Z,10.00
2018-11-12T12:42:09.604Z,10.40
2018-11-12T12:44:37.802Z,10.60
2018-11-12T12:47:06.154Z,11.10
2018-11-12T12:49:35.171Z,10.57
2018-11-12T12:52:03.634Z,10.33
2018-11-12T12:54:31.765Z,10.93
2018-11-12T12:56:59.877Z,11.63
2018-11-12T12:59:28.038Z,11.60
2018-11-12T13:01:56.238Z,12.23
2018-11-12T13:04:24.370Z,12.10
2018-11-12T13:06:52.517Z,11.33
2018-11-12T13:09:20.650Z,12.88
2018-11-12T13:11:48.781Z,13.83
2018-11-12T13:14:17.102Z,13.80
2018-11-12T13:16:45.145Z,15.05
2018-11-12T13:19:13.282Z,14.83
2018-11-12T13:21:41.466Z,16.40
2018-11-12T13:24:09.598Z,15.37
2018-11-12T13:26:37.999Z,16.48
2018-11-12T13:29:06.141Z,15.37
2018-11-12T13:31:34.294Z,15.17
2018-11-12T13:34:02.446Z,14.57
2018-11-12T13:36:30.622Z,14.77
2018-11-12T13:38:58.765Z,15.20
2018-11-12T13:41:26.885Z,15.20
2018-11-12T13:43:55.036Z,15.33
2018-11-12T13:46:27.329Z,14.97
2018-11-12T13:48:55.539Z,14.83
2018-11-12T13:51:23.664Z,14.80
2018-11-12T13:53:51.801Z,16.93
2018-11-12T13:56:19.887Z,17.00
2018-11-12T13:58:48.037Z,15.33
2018-11-12T14:01:16.174Z,15.40
2018-11-12T14:03:45.016Z,14.96
2018-11-12T14:06:13.129Z,15.63
2018-11-12T14:08:41.257Z,15.17
2018-11-12T14:11:09.389Z,14.33
2018-11-12T14:13:37.522Z,14.83
2018-11-12T14:16:05.917Z,14.40
2018-11-12T14:18:34.012Z,16.33
2018-11-12T14:21:02.336Z,15.80
2018-11-12T14:23:30.269Z,15.57
2018-11-12T14:25:58.395Z,15.30
2018-11-12T14:28:26.765Z,15.97
2018-11-12T14:30:54.872Z,14.70
2018-11-12T14:33:23.080Z,14.40
2018-11-12T14:35:51.207Z,16.07
2018-11-12T14:38:19.289Z,16.15
2018-11-12T14:40:47.433Z,14.87
2018-11-12T14:43:15.561Z,15.85
2018-11-12T14:45:43.702Z,14.60
2018-11-12T14:48:11.857Z,15.67
2018-11-12T14:50:40.203Z,16.70
2018-11-12T14:53:08.282Z,14.10
2018-11-12T14:55:36.417Z,14.90
2018-11-12T14:58:04.549Z,15.48
2018-11-12T15:00:32.741Z,14.87
2018-11-12T15:03:00.867Z,15.95
2018-11-12T15:05:29.012Z,17.55
2018-11-12T15:07:57.158Z,17.12
2018-11-12T15:10:25.277Z,16.00
2018-11-12T15:12:53.445Z,18.30
2018-11-12T15:15:21.611Z,18.20
2018-11-12T15:17:49.739Z,17.30
2018-11-12T15:20:19.046Z,18.30
2018-11-12T15:22:47.296Z,17.77
2018-11-12T15:25:17.135Z,18.63
2018-11-12T15:27:45.719Z,16.83
2018-11-12T15:30:16.255Z,18.98
2018-11-12T15:32:45.148Z,19.80
2018-11-12T15:35:13.830Z,17.87
2018-11-12T15:37:42.595Z,18.37
2018-11-12T15:40:11.313Z,19.67
2018-11-12T15:42:39.995Z,20.17
2018-11-12T15:45:10.444Z,17.30
2018-11-12T15:47:38.562Z,16.90
2018-11-12T15:50:11.965Z,20.05
2018-11-12T15:52:40.149Z,19.47
2018-11-12T15:55:08.794Z,18.93
2018-11-12T15:57:37.172Z,17.47
2018-11-12T16:00:06.676Z,18.90
2018-11-12T16:02:34.809Z,18.10
2018-11-12T16:05:02.977Z,18.77
2018-11-12T16:07:31.081Z,18.53
2018-11-12T16:09:59.254Z,19.20
2018-11-12T16:12:27.439Z,18.37
2018-11-12T16:14:55.705Z,21.10
2018-11-12T16:17:23.877Z,18.60
2018-11-12T16:19:52.045Z,18.60
2018-11-12T16:22:20.278Z,19.23
2018-11-12T16:24:48.439Z,18.50
2018-11-12T16:27:16.569Z,19.70
2018-11-12T16:29:44.728Z,18.40
2018-11-12T16:32:12.883Z,19.30
2018-11-12T16:34:41.194Z,19.90
2018-11-12T16:37:09.330Z,21.40
2018-11-12T16:39:37.466Z,20.52
2018-11-12T16:42:05.717Z,18.70
2018-11-12T16:44:33.853Z,19.63
2018-11-12T16:47:01.986Z,20.43
2018-11-12T16:49:30.130Z,19.10
2018-11-12T16:51:58.281Z,18.45
2018-11-12T16:54:26.409Z,21.07
2018-11-12T16:56:54.535Z,20.20
2018-11-12T16:59:22.673Z,23.37
2018-11-12T17:01:50.813Z,23.53
2018-11-12T17:04:18.946Z,20.27
2018-11-12T17:06:47.069Z,21.00
2018-11-12T17:09:16.131Z,21.93
2018-11-12T17:11:44.297Z,20.60
2018-11-12T17:14:12.397Z,19.33
2018-11-12T17:16:40.567Z,20.43
2018-11-12T17:19:08.929Z,21.43
2018-11-12T17:21:37.094Z,20.10
2018-11-12T17:24:05.361Z,22.57
2018-11-12T17:26:33.523Z,22.67
2018-11-12T17:29:01.677Z,24.72
2018-11-12T17:31:29.812Z,22.58
2018-11-12T17:38:57.889Z,27.80
2018-11-12T17:41:26.029Z,29.13
2018-11-12T17:43:54.205Z,29.47
2018-11-12T17:46:22.462Z,31.10
2018-11-12T17:48:50.718Z,32.20
2018-11-12T17:51:18.932Z,28.80
2018-11-12T17:53:47.061Z,27.57
2018-11-12T17:56:15.221Z,27.77
2018-11-12T17:58:43.350Z,29.57
2018-11-12T18:01:11.520Z,27.10
2018-11-12T18:03:40.649Z,27.35
2018-11-12T18:06:08.949Z,25.63
2018-11-12T18:08:37.106Z,24.27
2018-11-12T18:11:05.242Z,25.27
2018-11-12T18:13:33.420Z,24.70
2018-11-12T18:16:01.538Z,25.63
2018-11-12T18:18:29.736Z,22.50
2018-11-12T18:20:57.900Z,24.57
2018-11-12T18:23:26.221Z,24.10
2018-11-12T18:25:54.426Z,22.90
2018-11-12T18:28:22.633Z,22.90
2018-11-12T18:30:51.214Z,21.47
2018-11-12T18:33:19.161Z,24.20
2018-11-12T18:35:47.365Z,21.77
2018-11-12T18:38:15.552Z,20.65
2018-11-12T18:40:43.686Z,21.48
2018-11-12T18:43:11.966Z,22.50
2018-11-12T18:45:40.100Z,21.20
2018-11-12T18:48:08.245Z,20.88
2018-11-12T18:50:36.429Z,20.23
2018-11-12T18:53:04.674Z,20.00
2018-11-12T18:55:33.045Z,19.80
2018-11-12T18:58:01.189Z,21.07
2018-11-12T19:00:29.358Z,21.60
2018-11-12T19:02:57.574Z,21.20
2018-11-12T19:05:28.293Z,21.43
2018-11-12T19:07:57.939Z,22.77
2018-11-12T19:10:30.258Z,22.95
2018-11-12T19:12:58.504Z,21.73
2018-11-12T19:15:28.273Z,22.57
2018-11-12T19:17:59.149Z,22.97
2018-11-12T19:20:27.329Z,21.37
2018-11-12T19:22:55.625Z,23.17
2018-11-12T19:25:24.110Z,22.43
2018-11-12T19:27:52.282Z,22.67
2018-11-12T19:30:21.779Z,21.53
2018-11-12T19:32:49.940Z,20.70
2018-11-12T19:35:19.462Z,20.30
2018-11-12T19:37:47.640Z,20.37
2018-11-12T19:40:17.088Z,21.43
2018-11-12T19:42:46.241Z,22.00
2018-11-12T19:45:14.736Z,18.73
2018-11-12T19:47:43.080Z,20.53
2018-11-12T19:50:15.304Z,18.13
2018-11-12T19:52:44.812Z,18.77
2018-11-12T19:55:13.185Z,19.62
2018-11-12T19:57:41.578Z,18.27
2018-11-12T20:00:11.392Z,20.03
2018-11-12T20:02:39.897Z,19.97
2018-11-12T20:05:08.175Z,18.60
2018-11-12T20:07:36.617Z,23.50
2018-11-12T20:10:07.566Z,21.20
2018-11-12T20:12:35.725Z,21.85
2018-11-12T20:15:03.894Z,20.93
2018-11-12T20:17:32.040Z,23.02
2018-11-12T20:20:00.195Z,20.30
2018-11-12T20:22:28.363Z,21.95
2018-11-12T20:24:56.604Z,22.27
2018-11-12T20:27:24.739Z,24.83
2018-11-12T20:29:52.892Z,23.23
2018-11-12T20:32:21.356Z,24.30
2018-11-12T20:34:49.511Z,24.53
2018-11-12T20:37:17.642Z,24.67
2018-11-12T20:39:45.802Z,25.80
2018-11-12T20:42:13.950Z,26.27
2018-11-12T20:44:42.188Z,27.80
2018-11-12T20:47:10.330Z,24.13
2018-11-12T20:49:38.505Z,25.80
2018-11-12T20:52:06.678Z,24.50
2018-11-12T20:54:34.830Z,25.13
2018-11-12T20:57:03.025Z,25.23
2018-11-12T20:59:31.154Z,24.70
2018-11-12T21:01:59.291Z,24.50
2018-11-12T21:04:27.430Z,22.77
2018-11-12T21:06:55.609Z,21.30
2018-11-12T21:09:23.789Z,24.67
2018-11-12T21:11:52.022Z,22.53
2018-11-12T21:14:20.154Z,22.57
2018-11-12T21:16:48.302Z,20.07
2018-11-12T21:19:16.512Z,18.13
2018-11-12T21:21:44.651Z,19.53
2018-11-12T21:24:12.865Z,18.20
2018-11-12T21:26:41.020Z,18.80
2018-11-12T21:29:09.307Z,22.53
2018-11-12T21:31:37.436Z,19.37
2018-11-12T21:34:05.884Z,19.55
2018-11-12T21:36:34.429Z,20.20
2018-11-12T21:39:02.606Z,20.00
2018-11-12T21:41:30.742Z,21.30
2018-11-12T21:43:59.730Z,21.17
2018-11-12T21:46:27.936Z,22.90
2018-11-12T21:48:56.081Z,23.00
2018-11-12T21:51:24.272Z,22.97
2018-11-12T21:53:52.449Z,22.80
2018-11-12T21:56:20.630Z,24.97
2018-11-12T21:58:48.912Z,24.50
2018-11-12T22:01:17.211Z,24.27
2018-11-12T22:03:46.656Z,24.77
2018-11-12T22:06:14.806Z,22.70
2018-11-12T22:08:43.083Z,24.20
2018-11-12T22:11:11.184Z,25.32
2018-11-12T22:13:40.172Z,25.88
2018-11-12T22:16:08.498Z,24.37
2018-11-12T22:18:36.698Z,22.40
2018-11-12T22:21:05.026Z,23.43
2018-11-12T22:23:33.260Z,20.77
2018-11-12T22:26:01.430Z,20.97
2018-11-12T22:28:29.602Z,19.77
2018-11-12T22:30:57.813Z,21.30
2018-11-12T22:33:26.114Z,19.90
2018-11-12T22:35:54.318Z,21.20
2018-11-12T22:38:22.530Z,20.27
2018-11-12T22:40:50.673Z,21.40
2018-11-12T22:43:18.854Z,21.07
2018-11-12T22:45:47.059Z,19.03
2018-11-12T22:48:15.225Z,19.23
2018-11-12T22:50:43.441Z,19.50
2018-11-12T22:53:11.685Z,19.20
2018-11-12T22:55:39.922Z,16.83
2018-11-12T22:58:08.288Z,16.80
2018-11-12T23:00:39.085Z,20.27
2018-11-12T23:03:07.973Z,19.43
2018-11-12T23:05:36.242Z,19.43
2018-11-12T23:08:04.465Z,17.17
2018-11-12T23:10:32.694Z,17.67
2018-11-12T23:13:00.857Z,17.57
2018-11-12T23:15:29.043Z,18.30
2018-11-12T23:17:57.279Z,17.67
2018-11-12T23:20:27.127Z,18.10
2018-11-12T23:22:55.276Z,18.77
2018-11-12T23:25:23.455Z,18.20
2018-11-12T23:27:52.330Z,18.70
2018-11-12T23:30:21.942Z,18.57
2018-11-12T23:32:50.248Z,18.73
2018-11-12T23:35:22.720Z,20.70
2018-11-12T23:37:51.241Z,19.33
2018-11-12T23:40:19.462Z,16.97
2018-11-12T23:42:48.070Z,17.70
2018-11-12T23:45:16.214Z,16.80
2018-11-12T23:47:44.393Z,18.80
2018-11-12T23:50:14.903Z,16.80
2018-11-12T23:52:43.719Z,18.57
2018-11-12T23:55:12.287Z,18.92
2018-11-12T23:57:40.554Z,17.42
